M I D A S
Marine Information and Data Acquisition System
Tripno 858 of the Zeeleeuw from 2005-03-08 07:18:40 to 2005-03-08 16:14:43
Back to CruiseResearch ActivitiesStationsMapUnderway DataData graphs

EquipmentUnitsComment
TimeDGPSUTC
LatitudeDGPSDM.mWGS84
LongitudeDGPSDM.mWGS84
HeadingGyrodeg 
SOGDGPSknotsSpeed over ground
COGDGPSdegCourse over ground
DepthEcho soundermeters200 kHz
Missing or incorrect values are displayed as -999
Navigation data collected by the RV Zeeleeuw from 2005-03-08 07:19:27 to 2005-03-08 16:24:33
Time Latitude Longitude Heading SOG COG Depth
2005-03-08 07:20:32 51°13.622 2°56.004 120.7 4.2 295 -999
2005-03-08 07:21:32 51°13.665 2°55.898 127.7 5 306 -999
2005-03-08 07:22:32 51°13.698 2°55.797 108.7 4.1 288 -999
2005-03-08 07:23:32 51°13.707 2°55.747 72.6 1.4 60 -999
2005-03-08 07:24:33 51°13.698 2°55.734 47.5 0.2 197 -999
2005-03-08 07:25:32 51°13.75 2°55.711 332.5 4.3 329 9.8
2005-03-08 07:26:31 51°13.852 2°55.619 338.8 8.6 335 10.1
2005-03-08 07:27:32 51°13.998 2°55.513 338.9 9.6 337 9.7
2005-03-08 07:28:31 51°14.14 2°55.407 337.9 10.1 333 10
2005-03-08 07:29:32 51°14.283 2°55.233 319.6 11.1 316 9.8
2005-03-08 07:30:31 51°14.402 2°54.998 314.7 11.6 310 9.9
2005-03-08 07:31:32 51°14.55 2°54.764 321.6 12.9 314 9.9
2005-03-08 07:32:31 51°14.697 2°54.514 319.6 13.1 313 9.8
2005-03-08 07:33:31 51°14.846 2°54.26 320.4 13.1 313 9.7
2005-03-08 07:34:31 51°14.98 2°53.986 314.7 13.1 306 9.4
2005-03-08 07:35:31 51°15.115 2°53.711 317.1 13.1 309 9.6
2005-03-08 07:36:32 51°15.218 2°53.401 297.5 13.4 289 10.1
2005-03-08 07:37:32 51°15.284 2°53.056 296.6 13.6 288 10.8
2005-03-08 07:38:31 51°15.319 2°52.702 284.4 13.6 277 11.2
2005-03-08 07:39:31 51°15.345 2°52.344 283.8 13.6 276 11.7
2005-03-08 07:40:32 51°15.371 2°51.984 283.7 13.5 276 12
2005-03-08 07:41:32 51°15.375 2°51.626 272.1 13.5 264 12.3
2005-03-08 07:42:32 51°15.347 2°51.269 269.5 13.5 262 12.5
2005-03-08 07:43:31 51°15.31 2°50.922 263.2 13.6 255 12.7
2005-03-08 07:44:30 51°15.26 2°50.574 263 13.6 258 12.7
2005-03-08 07:45:32 51°15.207 2°50.214 263.5 13.5 258 12.8
2005-03-08 07:46:32 51°15.158 2°49.863 263.4 13.5 258 13.1
2005-03-08 07:47:31 51°15.112 2°49.516 264.4 13.6 258 13.4
2005-03-08 07:48:32 51°15.063 2°49.155 264.1 13.6 256 13.3
2005-03-08 07:49:32 51°15.016 2°48.804 263.6 13.7 257 13.1
2005-03-08 07:50:31 51°14.968 2°48.457 263.2 13.7 257 13.2
2005-03-08 07:51:31 51°14.922 2°48.102 264.5 13.5 257 13.2
2005-03-08 07:52:31 51°14.876 2°47.753 264.8 13.6 259 13.5
2005-03-08 07:53:32 51°14.828 2°47.4 264.5 13.5 258 13.2
2005-03-08 07:54:32 51°14.781 2°47.048 261.3 13.5 254 13
2005-03-08 07:55:32 51°14.733 2°46.702 265.5 13.5 262 12.4
2005-03-08 07:56:30 51°14.689 2°46.361 263.5 13.4 261 10.6
2005-03-08 07:57:32 51°14.64 2°46.004 265.3 13.1 256 9.3
2005-03-08 07:58:31 51°14.595 2°45.665 264.4 13.4 256 9.2
2005-03-08 07:59:31 51°14.549 2°45.318 265.1 13.6 259 10.2
2005-03-08 08:00:31 51°14.512 2°44.96 269.5 13.7 263 11.4
2005-03-08 08:01:31 51°14.486 2°44.6 271.8 13.5 269 13.5
2005-03-08 08:02:32 51°14.462 2°44.235 270.1 13.7 263 14.9
2005-03-08 08:03:31 51°14.437 2°43.88 270.7 13.8 262 16
2005-03-08 08:04:31 51°14.411 2°43.516 270.7 13.6 264 16.7
2005-03-08 08:05:32 51°14.384 2°43.159 270.5 13.4 263 17.5
2005-03-08 08:06:31 51°14.359 2°42.807 268.3 13.6 261 17.9
2005-03-08 08:07:31 51°14.34 2°42.455 273.4 13.4 266 17.9
2005-03-08 08:08:31 51°14.327 2°42.096 273.5 13.3 265 18.2
2005-03-08 08:09:31 51°14.313 2°41.747 272.9 13.3 267 16.5
2005-03-08 08:10:32 51°14.298 2°41.392 274.3 13.2 266 15.7
2005-03-08 08:11:30 51°14.286 2°41.051 273.3 13.1 267 15.8
2005-03-08 08:12:31 51°14.274 2°40.701 274 12.9 267 15
2005-03-08 08:13:31 51°14.26 2°40.35 272.1 13.3 263 15.3
2005-03-08 08:14:31 51°14.247 2°40.01 273.5 12.9 270 14.9
2005-03-08 08:15:31 51°14.221 2°39.665 268.4 13.2 263 14.6
2005-03-08 08:16:31 51°14.186 2°39.317 266.8 13.3 261 14.2
2005-03-08 08:17:31 51°14.149 2°38.972 267.5 13.5 263 13.2
2005-03-08 08:18:31 51°14.116 2°38.626 268.6 13.4 260 15
2005-03-08 08:19:32 51°14.077 2°38.266 268.4 13.6 261 18.3
2005-03-08 08:20:32 51°14.004 2°37.924 253.8 13.9 248 51.3
2005-03-08 08:21:31 51°13.893 2°37.613 245.5 13.6 238 19.7
2005-03-08 08:22:32 51°13.78 2°37.29 246.1 13.8 238 19.5
2005-03-08 08:23:32 51°13.669 2°36.973 243.9 13.7 232 19.7
2005-03-08 08:24:31 51°13.564 2°36.665 245.9 13.8 242 19.2
2005-03-08 08:25:31 51°13.448 2°36.353 244 13.4 242 18.1
2005-03-08 08:26:32 51°13.331 2°36.041 245 13.3 237 17.6
2005-03-08 08:27:31 51°13.216 2°35.746 239.9 13.6 243 17.5
2005-03-08 08:28:31 51°13.093 2°35.449 241.9 13.6 241 17
2005-03-08 08:29:32 51°12.97 2°35.146 240.3 13.5 237 15.6
2005-03-08 08:30:31 51°12.849 2°34.857 242.4 13.3 236 13.9
2005-03-08 08:31:31 51°12.715 2°34.573 234.8 13.2 232 14.1
2005-03-08 08:32:32 51°12.564 2°34.296 235.8 13.6 235 15.6
2005-03-08 08:33:31 51°12.42 2°34.04 232.9 13.6 229 17.2
2005-03-08 08:34:30 51°12.264 2°33.793 227.2 13.2 220 18.6
2005-03-08 08:35:32 51°12.088 2°33.563 219.9 13.2 210 20.6
2005-03-08 08:36:31 51°11.923 2°33.38 223 11.7 220 20.8
2005-03-08 08:37:31 51°11.84 2°33.289 206.2 4.4 197 20.4
2005-03-08 08:38:31 51°11.79 2°33.289 205.4 1.9 176 19.5
2005-03-08 08:39:31 51°11.764 2°33.29 222 1.3 176 18.9
2005-03-08 08:40:32 51°11.743 2°33.294 230 1.2 171 18.6
2005-03-08 08:41:31 51°11.72 2°33.292 228.9 1.6 183 18
2005-03-08 08:42:31 51°11.683 2°33.259 235.2 3 217 18.3
2005-03-08 08:43:31 51°11.642 2°33.208 240.5 3.2 226 17.1
2005-03-08 08:44:31 51°11.61 2°33.149 248.5 2.9 233 16.9
2005-03-08 08:45:32 51°11.579 2°33.092 248.8 2.6 227 16.1
2005-03-08 08:46:31 51°11.55 2°33.047 250.7 2.5 219 15.1
2005-03-08 08:47:32 51°11.516 2°33.009 231.7 2.9 199 14.6
2005-03-08 08:48:32 51°11.475 2°32.981 234.6 2.6 209 13.5
2005-03-08 08:49:31 51°11.442 2°32.944 246 2.4 222 14.4
2005-03-08 08:50:32 51°11.412 2°32.901 253.1 2.3 224 13.9
2005-03-08 08:51:31 51°11.394 2°32.85 267.4 2.5 244 14.7
2005-03-08 08:52:31 51°11.376 2°32.785 263.4 2.8 239 14
2005-03-08 08:53:32 51°11.353 2°32.721 251.7 2.8 234 14.7
2005-03-08 08:54:31 51°11.32 2°32.666 244.2 3 221 14.6
2005-03-08 08:55:32 51°11.286 2°32.612 244.2 2.8 227 15
2005-03-08 08:56:32 51°11.254 2°32.562 246 2.6 229 15.3
2005-03-08 08:57:32 51°11.226 2°32.512 248.9 2.5 227 15.7
2005-03-08 08:58:31 51°11.199 2°32.463 250.5 2.4 229 16
2005-03-08 08:59:31 51°11.175 2°32.416 249.2 2.3 231 16
2005-03-08 09:00:32 51°11.149 2°32.365 250.6 2.5 235 16.6
2005-03-08 09:01:32 51°11.122 2°32.318 248.3 2.3 230 16.5
2005-03-08 09:02:31 51°11.096 2°32.27 250.2 2.4 228 17.6
2005-03-08 09:03:31 51°11.073 2°32.22 249.6 2.4 228 17.8
2005-03-08 09:04:30 51°11.049 2°32.173 249.7 2.3 235 17.7
2005-03-08 09:05:31 51°11.026 2°32.125 253.2 2.2 236 18.4
2005-03-08 09:06:31 51°11.004 2°32.079 248.6 2.4 230 18.4
2005-03-08 09:07:32 51°10.979 2°32.031 248.3 2.3 223 18.5
2005-03-08 09:08:31 51°10.954 2°31.983 249 2.4 231 18.5
2005-03-08 09:09:31 51°10.93 2°31.935 248.2 2.4 229 18.6
2005-03-08 09:10:31 51°10.904 2°31.885 245.2 2.5 236 19
2005-03-08 09:11:31 51°10.879 2°31.839 247.1 2.3 229 19.2
2005-03-08 09:12:32 51°10.852 2°31.79 245.9 2.3 226 19.1
2005-03-08 09:13:32 51°10.825 2°31.742 244.2 2.4 229 19.6
2005-03-08 09:14:30 51°10.798 2°31.696 243.8 2.4 224 19.9
2005-03-08 09:15:32 51°10.767 2°31.648 241.3 2.5 223 20
2005-03-08 09:16:32 51°10.738 2°31.603 243.5 2.3 225 20
2005-03-08 09:17:31 51°10.713 2°31.561 244 2.3 225 20.3
2005-03-08 09:18:32 51°10.686 2°31.517 244.3 2.2 219 20.5
2005-03-08 09:19:32 51°10.661 2°31.461 249.1 2.8 240 20.4
2005-03-08 09:20:31 51°10.636 2°31.392 247.3 3.1 243 21
2005-03-08 09:21:32 51°10.605 2°31.32 245 3.2 235 21.3
2005-03-08 09:22:31 51°10.58 2°31.251 252.5 3 244 21.4
2005-03-08 09:23:31 51°10.561 2°31.188 255.5 1.9 247 21.3
2005-03-08 09:24:32 51°10.553 2°31.164 259.1 0.6 237 21.9
2005-03-08 09:25:32 51°10.547 2°31.164 262.5 0.3 128 21.8
2005-03-08 09:26:32 51°10.544 2°31.166 268 0.7 265 21.7
2005-03-08 09:27:31 51°10.566 2°31.125 315.3 3.2 337 21.7
2005-03-08 09:28:32 51°10.635 2°31.144 11.9 5.1 24 21.6
2005-03-08 09:29:32 51°10.705 2°31.215 27.8 4.9 34 21.4
2005-03-08 09:30:32 51°10.754 2°31.299 41.3 4 51 21
2005-03-08 09:31:31 51°10.786 2°31.38 50.1 3.6 62 20.8
2005-03-08 09:32:32 51°10.812 2°31.461 57.9 3.3 69 20.6
2005-03-08 09:33:32 51°10.83 2°31.537 60.4 3 69 20.6
2005-03-08 09:34:32 51°10.849 2°31.605 52 2.9 65 20.6
2005-03-08 09:35:31 51°10.867 2°31.668 48.6 2.5 65 20.1
2005-03-08 09:36:32 51°10.885 2°31.729 46.6 2.6 70 19.6
2005-03-08 09:37:30 51°10.899 2°31.787 45.7 2.5 66 19.9
2005-03-08 09:38:32 51°10.919 2°31.85 44.2 2.7 65 19.3
2005-03-08 09:39:32 51°10.939 2°31.912 39.1 2.8 59 19
2005-03-08 09:40:31 51°10.961 2°31.972 35.3 2.7 57 19.1
2005-03-08 09:41:32 51°10.985 2°32.037 33.6 2.7 57 18.9
2005-03-08 09:42:31 51°11.01 2°32.098 32.7 2.9 56 18.9
2005-03-08 09:43:31 51°11.032 2°32.159 32.9 3 62 18.2
2005-03-08 09:44:32 51°11.052 2°32.222 31.1 2.5 65 18.1
2005-03-08 09:45:32 51°11.072 2°32.283 30.2 2.7 62 18.2
2005-03-08 09:46:31 51°11.093 2°32.344 28.5 2.7 62 17.9
2005-03-08 09:47:32 51°11.112 2°32.405 27.1 2.8 63 18
2005-03-08 09:48:32 51°11.135 2°32.464 21.6 2.5 61 17.3
2005-03-08 09:49:32 51°11.157 2°32.522 17.3 2.6 59 17
2005-03-08 09:50:31 51°11.179 2°32.578 18 2.8 57 16.6
2005-03-08 09:51:31 51°11.2 2°32.639 25.6 2.6 56 16.1
2005-03-08 09:52:32 51°11.221 2°32.703 21.9 2.7 59 16.1
2005-03-08 09:53:32 51°11.244 2°32.766 15.2 2.8 58 15.6
2005-03-08 09:54:32 51°11.267 2°32.822 6.2 2.6 58 15.3
2005-03-08 09:55:31 51°11.29 2°32.873 355.6 2.6 48 15.2
2005-03-08 09:56:31 51°11.319 2°32.916 342.2 2.4 39 15.3
2005-03-08 09:57:32 51°11.35 2°32.95 335.4 2.2 36 14.4
2005-03-08 09:58:32 51°11.387 2°32.975 337.9 2.7 23 14.5
2005-03-08 09:59:32 51°11.43 2°33.006 347.9 3.1 29 14.7
2005-03-08 10:00:31 51°11.467 2°33.047 348.2 2.7 35 15.3
2005-03-08 10:01:31 51°11.502 2°33.087 349.7 2.9 35 14.5
2005-03-08 10:02:32 51°11.54 2°33.13 348.7 2.8 34 15.1
2005-03-08 10:03:32 51°11.578 2°33.173 351 2.8 36 16.2
2005-03-08 10:04:31 51°11.618 2°33.214 350.9 2.9 34 17.3
2005-03-08 10:05:31 51°11.655 2°33.255 347.6 2.6 32 18.3
2005-03-08 10:06:31 51°11.694 2°33.294 349 2.8 33 19.4
2005-03-08 10:07:32 51°11.732 2°33.338 354.3 2.9 38 18.6
2005-03-08 10:08:31 51°11.767 2°33.397 20.9 3.3 51 18.6
2005-03-08 10:09:32 51°11.798 2°33.481 48.1 3.7 62 18.9
2005-03-08 10:10:31 51°11.824 2°33.57 55.7 3.9 65 19.2
2005-03-08 10:11:31 51°11.843 2°33.671 73.9 4.1 75 18.1
2005-03-08 10:12:32 51°11.861 2°33.775 71.3 3.5 74 17.3
2005-03-08 10:13:32 51°11.879 2°33.863 53.3 3.5 67 17
2005-03-08 10:14:31 51°11.904 2°33.939 26.3 3.2 60 17.1
2005-03-08 10:15:31 51°11.922 2°34.006 24.2 2.6 77 17
2005-03-08 10:16:31 51°11.945 2°34.074 10 3 54 17.3
2005-03-08 10:17:32 51°11.962 2°34.136 2.8 2.4 73 16.9
2005-03-08 10:18:32 51°11.97 2°34.202 15.2 2.6 83 16.9
2005-03-08 10:19:32 51°11.998 2°34.265 354.8 2.8 42 16.6
2005-03-08 10:20:32 51°12.025 2°34.305 321.7 1.9 41 17
2005-03-08 10:21:32 51°12.042 2°34.327 295 1.1 36 16.9
2005-03-08 10:22:32 51°12.048 2°34.332 265.8 0.5 129 16.9
2005-03-08 10:23:31 51°12.036 2°34.343 231.1 1.2 153 17
2005-03-08 10:24:31 51°12.018 2°34.359 233.5 1.1 141 16.6
2005-03-08 10:25:31 51°12.007 2°34.386 235.8 1.1 110 16.2
2005-03-08 10:26:31 51°11.994 2°34.397 246.1 1.4 201 16
2005-03-08 10:27:31 51°11.983 2°34.359 273.8 1.7 282 16.2
2005-03-08 10:28:31 51°11.989 2°34.339 274.8 0.2 324 16.3
2005-03-08 10:29:32 51°11.992 2°34.353 270.7 0.9 74 16.2
2005-03-08 10:30:31 51°11.992 2°34.386 268.1 1.5 96 16.3
2005-03-08 10:31:31 51°11.991 2°34.398 267.4 1.2 276 16.4
2005-03-08 10:32:32 51°12 2°34.323 279.5 3.7 283 16.6
2005-03-08 10:33:31 51°12.021 2°34.213 280.8 4.6 288 17.1
2005-03-08 10:34:31 51°12.064 2°34.155 312 2 350 17.1
2005-03-08 10:35:32 51°12.091 2°34.173 325.8 1.8 42 17.8
2005-03-08 10:36:32 51°12.104 2°34.219 335.4 1.9 74 17.6
2005-03-08 10:37:32 51°12.106 2°34.277 353.4 2.3 97 17.5
2005-03-08 10:38:31 51°12.136 2°34.333 2.9 5.5 21 17.5
2005-03-08 10:39:31 51°12.287 2°34.389 11.6 11.8 16 18.5
2005-03-08 10:40:32 51°12.499 2°34.511 26.2 14.1 26 17.8
2005-03-08 10:41:32 51°12.691 2°34.75 41.9 14.8 40 17
2005-03-08 10:42:31 51°12.89 2°34.937 18.2 13.8 17 16.4
2005-03-08 10:43:31 51°13.109 2°34.925 350.6 13.2 353 20.2
2005-03-08 10:44:31 51°13.327 2°34.875 350.5 13.3 351 19.3
2005-03-08 10:45:32 51°13.548 2°34.825 351.1 13.2 352 16.8
2005-03-08 10:46:32 51°13.767 2°34.779 351.9 13.3 353 16.8
2005-03-08 10:47:31 51°13.918 2°34.969 84.5 13.6 87 18
2005-03-08 10:48:31 51°13.912 2°35.353 93.6 14.8 88 16.7
2005-03-08 10:49:32 51°13.921 2°35.751 94.8 15.1 84 17.4
2005-03-08 10:50:32 51°13.986 2°36.131 75.5 14.7 72 17.4
2005-03-08 10:51:32 51°14.073 2°36.453 54.8 10.7 51 16.8
2005-03-08 10:52:32 51°14.182 2°36.501 347.9 5.8 357 15.2
2005-03-08 10:53:31 51°14.286 2°36.49 349.5 6.6 357 14.6
2005-03-08 10:54:31 51°14.395 2°36.48 349.5 6.7 359 13.8
2005-03-08 10:55:32 51°14.505 2°36.529 37.9 7.8 43 12.5
2005-03-08 10:56:31 51°14.545 2°36.803 96.4 13.4 98 12.1
2005-03-08 10:57:33 51°14.497 2°37.183 114.3 14.7 109 13.6
2005-03-08 10:58:31 51°14.431 2°37.544 117 14.2 108 15.6
2005-03-08 10:59:32 51°14.365 2°37.929 112.8 14.8 104 19
2005-03-08 11:00:32 51°14.288 2°38.291 125.7 14 112 21.4
2005-03-08 11:01:31 51°14.147 2°38.582 138.8 14.1 127 18.8
2005-03-08 11:02:32 51°13.958 2°38.812 158.6 13.5 146 15.3
2005-03-08 11:03:32 51°13.751 2°38.888 189.8 12.8 180 17.3
2005-03-08 11:04:32 51°13.553 2°38.78 212.5 12.1 203 17.6
2005-03-08 11:05:31 51°13.371 2°38.637 218.1 12.3 212 17.5
2005-03-08 11:06:32 51°13.196 2°38.454 220.8 12.4 215 17.2
2005-03-08 11:07:32 51°13.022 2°38.272 221.3 13 211 16.9
2005-03-08 11:08:32 51°12.851 2°38.094 222.5 12.3 213 16
2005-03-08 11:09:32 51°12.682 2°37.909 219.5 12.6 216 15.9
2005-03-08 11:10:32 51°12.509 2°37.73 221.2 12.8 211 15.3
2005-03-08 11:11:32 51°12.339 2°37.548 220.5 12.6 216 15
2005-03-08 11:12:32 51°12.169 2°37.364 222.2 13.3 211 14.7
2005-03-08 11:13:33 51°11.994 2°37.179 220.7 12.3 213 14.6
2005-03-08 11:14:31 51°11.829 2°36.996 223 12.1 214 14.4
2005-03-08 11:15:32 51°11.657 2°36.809 220 12.5 211 14.4
2005-03-08 11:16:32 51°11.485 2°36.621 219.5 12.4 215 14.3
2005-03-08 11:17:32 51°11.305 2°36.454 213 12.6 206 14.3
2005-03-08 11:18:32 51°11.122 2°36.291 214 12.4 205 14.4
2005-03-08 11:19:31 51°10.944 2°36.127 218.7 12.7 211 14.1
2005-03-08 11:20:32 51°10.76 2°35.96 217.2 11.9 209 13.8
2005-03-08 11:21:32 51°10.561 2°35.854 200.3 12.2 196 13.4
2005-03-08 11:22:31 51°10.365 2°35.765 203.7 12 193 14.1
2005-03-08 11:23:32 51°10.158 2°35.666 203.3 12.9 200 13.9
2005-03-08 11:24:32 51°9.96 2°35.574 202.5 12 198 19.7
2005-03-08 11:25:33 51°9.766 2°35.475 205.2 11.7 199 21.5
2005-03-08 11:26:32 51°9.575 2°35.37 207.2 12.1 202 21.3
2005-03-08 11:27:33 51°9.382 2°35.243 209.9 11.8 205 20.4
2005-03-08 11:28:32 51°9.204 2°35.096 215.4 12.3 211 19.8
2005-03-08 11:29:32 51°9.033 2°34.928 217.7 12.4 214 19.2
2005-03-08 11:30:32 51°8.879 2°34.74 222.1 11.8 219 19.3
2005-03-08 11:31:31 51°8.722 2°34.558 221.5 11.4 210 19.8
2005-03-08 11:32:31 51°8.602 2°34.425 217.6 8.2 213 19.9
2005-03-08 11:33:31 51°8.582 2°34.273 283.7 4 297 19.4
2005-03-08 11:34:33 51°8.623 2°34.242 327.9 2.1 2 19.7
2005-03-08 11:35:32 51°8.636 2°34.278 14.3 1.7 75 20
2005-03-08 11:36:32 51°8.641 2°34.322 45.7 1.7 79 20
2005-03-08 11:37:31 51°8.647 2°34.363 59.3 1.5 73 19.7
2005-03-08 11:38:33 51°8.651 2°34.405 63.8 1.4 75 19.8
2005-03-08 11:39:31 51°8.655 2°34.443 60.3 1.4 80 20.1
2005-03-08 11:40:33 51°8.658 2°34.483 58.2 1.6 90 19.8
2005-03-08 11:41:33 51°8.661 2°34.521 58.6 1.4 81 20
2005-03-08 11:42:32 51°8.665 2°34.56 59.2 1.5 76 19.8
2005-03-08 11:43:33 51°8.674 2°34.632 91.4 3.6 85 19.7
2005-03-08 11:44:32 51°8.653 2°34.723 154.1 3.7 123 19.2
2005-03-08 11:45:32 51°8.611 2°34.734 225.6 2 206 18.2
2005-03-08 11:46:32 51°8.598 2°34.702 263.1 1.6 269 17.8
2005-03-08 11:47:31 51°8.606 2°34.643 271 2.7 272 18.9
2005-03-08 11:48:33 51°8.603 2°34.558 262.6 3.2 258 19.2
2005-03-08 11:49:32 51°8.591 2°34.474 253.7 3 241 19.4
2005-03-08 11:50:32 51°8.577 2°34.405 256.2 2.6 259 19.6
2005-03-08 11:51:32 51°8.568 2°34.338 252 2.4 247 19.7
2005-03-08 11:52:32 51°8.544 2°34.287 243.2 2.5 238 19.6
2005-03-08 11:53:32 51°8.523 2°34.226 247.7 2.6 238 19.7
2005-03-08 11:54:33 51°8.502 2°34.161 247.2 2.8 244 19.6
2005-03-08 11:55:32 51°8.48 2°34.097 246.1 2.9 244 19.8
2005-03-08 11:56:32 51°8.457 2°34.033 247.8 2.9 240 19.7
2005-03-08 11:57:33 51°8.434 2°33.966 245.6 2.8 235 19.5
2005-03-08 11:58:31 51°8.41 2°33.904 245.8 3 227 19.5
2005-03-08 11:59:32 51°8.385 2°33.838 247.6 3 230 19.5
2005-03-08 12:00:32 51°8.361 2°33.772 247 2.9 235 19.6
2005-03-08 12:01:32 51°8.336 2°33.705 248.3 3.1 243 19.4
2005-03-08 12:02:33 51°8.311 2°33.636 247.4 3 242 19.5
2005-03-08 12:03:32 51°8.288 2°33.568 248.9 2.9 246 19.4
2005-03-08 12:04:32 51°8.265 2°33.497 248.3 3.1 246 19.2
2005-03-08 12:05:31 51°8.241 2°33.427 247.4 3.1 237 19.2
2005-03-08 12:06:32 51°8.214 2°33.355 247.6 3 248 19.1
2005-03-08 12:07:31 51°8.19 2°33.285 247.3 3.1 240 19
2005-03-08 12:08:32 51°8.165 2°33.213 247.8 3.1 237 18.9
2005-03-08 12:09:31 51°8.139 2°33.143 246 3.1 235 18.8
2005-03-08 12:10:32 51°8.114 2°33.07 249 3.1 235 18.8
2005-03-08 12:11:32 51°8.092 2°32.994 251.5 3.1 249 18.8
2005-03-08 12:12:31 51°8.068 2°32.92 247.8 3.1 240 18.7
2005-03-08 12:13:32 51°8.045 2°32.848 248.5 3.1 244 18.9
2005-03-08 12:14:33 51°8.02 2°32.774 246.8 3.1 237 18.4
2005-03-08 12:15:33 51°7.994 2°32.704 245.8 3 240 17.8
2005-03-08 12:16:32 51°7.969 2°32.636 245.8 3 238 18.3
2005-03-08 12:17:32 51°7.946 2°32.567 248.2 3 239 18.4
2005-03-08 12:18:32 51°7.921 2°32.498 247.3 3 233 18.4
2005-03-08 12:19:33 51°7.894 2°32.43 243.6 3 235 17.9
2005-03-08 12:20:33 51°7.868 2°32.359 249 3.1 238 17.8
2005-03-08 12:21:31 51°7.848 2°32.288 251.1 3 245 18
2005-03-08 12:22:33 51°7.825 2°32.216 246.9 3 243 17.4
2005-03-08 12:23:32 51°7.798 2°32.149 243.1 3.1 237 17.2
2005-03-08 12:24:33 51°7.782 2°32.076 260.5 2.9 258 17.2
2005-03-08 12:25:31 51°7.788 2°32.008 284.2 2.9 292 17.5
2005-03-08 12:26:32 51°7.824 2°31.974 330.6 2.3 354 19.6
2005-03-08 12:27:32 51°7.853 2°31.992 352.5 1.7 41 20.2
2005-03-08 12:28:32 51°7.882 2°32.03 25.2 3 39 20.3
2005-03-08 12:29:32 51°7.913 2°32.113 80.1 3.9 72 19.8
2005-03-08 12:30:32 51°7.918 2°32.21 100.7 3.6 91 19.1
2005-03-08 12:31:33 51°7.926 2°32.306 90.5 3.6 82 18.9
2005-03-08 12:32:32 51°7.943 2°32.399 78.9 3.7 75 18.9
2005-03-08 12:33:33 51°7.963 2°32.495 78.4 3.9 74 18.6
2005-03-08 12:34:32 51°7.98 2°32.591 84.5 3.8 75 18.5
2005-03-08 12:35:31 51°7.991 2°32.679 87 3.4 80 17.9
2005-03-08 12:36:32 51°8.002 2°32.759 81.8 2.9 77 18.2
2005-03-08 12:37:31 51°8.016 2°32.826 69.4 2.8 74 18.2
2005-03-08 12:38:32 51°8.033 2°32.89 67.2 2.7 62 17.8
2005-03-08 12:39:33 51°8.05 2°32.962 69.6 2.9 68 17.9
2005-03-08 12:40:32 51°8.068 2°33.035 69.7 3 77 17.9
2005-03-08 12:41:32 51°8.09 2°33.109 64.5 3.1 63 17.9
2005-03-08 12:42:32 51°8.113 2°33.18 60.6 3 61 18.2
2005-03-08 12:43:33 51°8.138 2°33.248 57.1 3 63 18
2005-03-08 12:44:31 51°8.163 2°33.311 56.3 2.9 60 18.3
2005-03-08 12:45:32 51°8.185 2°33.377 65.3 2.9 63 18.2
2005-03-08 12:46:31 51°8.206 2°33.444 63.1 2.9 60 18.3
2005-03-08 12:47:32 51°8.227 2°33.516 64.5 2.9 63 18.3
2005-03-08 12:48:32 51°8.246 2°33.588 67.5 2.8 68 18.1
2005-03-08 12:49:32 51°8.26 2°33.663 74.7 3 75 18.2
2005-03-08 12:50:31 51°8.272 2°33.738 69.6 3 70 17.7
2005-03-08 12:51:33 51°8.289 2°33.813 65.9 2.8 71 17.1
2005-03-08 12:52:32 51°8.306 2°33.883 60.5 2.9 68 17.1
2005-03-08 12:53:32 51°8.325 2°33.952 59.8 2.9 63 17.4
2005-03-08 12:54:32 51°8.345 2°34.02 54.4 2.9 68 16.9
2005-03-08 12:55:32 51°8.369 2°34.083 47.8 2.7 58 17
2005-03-08 12:56:31 51°8.394 2°34.142 43.6 2.8 50 17.3
2005-03-08 12:57:32 51°8.421 2°34.2 44.6 2.7 58 17.4
2005-03-08 12:58:31 51°8.447 2°34.257 50 2.7 53 17.5
2005-03-08 12:59:32 51°8.473 2°34.318 45.7 2.7 50 17.5
2005-03-08 13:00:33 51°8.502 2°34.373 42.7 2.8 55 17.8
2005-03-08 13:01:33 51°8.53 2°34.43 44.8 2.7 49 18
2005-03-08 13:02:31 51°8.558 2°34.485 39.5 2.7 43 18.1
2005-03-08 13:03:32 51°8.591 2°34.54 39.2 3 49 18.3
2005-03-08 13:04:33 51°8.631 2°34.607 38.8 3.6 42 18.4
2005-03-08 13:05:33 51°8.682 2°34.674 35.1 4 39 18.4
2005-03-08 13:06:31 51°8.732 2°34.742 40.5 4.1 44 18.3
2005-03-08 13:07:32 51°8.785 2°34.825 42.7 4.5 44 18.6
2005-03-08 13:08:33 51°8.838 2°34.907 42.5 4 44 18.1
2005-03-08 13:09:31 51°8.874 2°34.958 35.7 2.6 43 18.4
2005-03-08 13:10:33 51°8.899 2°34.998 34.8 2 51 17.9
2005-03-08 13:11:32 51°8.916 2°35.031 35.8 1.8 46 18.1
2005-03-08 13:12:32 51°8.93 2°35.059 30.1 1.1 52 18.2
2005-03-08 13:13:32 51°8.939 2°35.083 27.1 1.2 63 18.3
2005-03-08 13:14:32 51°8.955 2°35.111 24.2 2.8 30 18.3
2005-03-08 13:15:33 51°9.025 2°35.111 338.3 3.9 345 18.5
2005-03-08 13:16:32 51°9.07 2°35.095 332.3 2.2 355 18.2
2005-03-08 13:17:32 51°9.099 2°35.092 326.1 1.6 355 17.9
2005-03-08 13:18:32 51°9.119 2°35.093 311.4 0.9 356 18.3
2005-03-08 13:19:32 51°9.133 2°35.081 293.4 1.4 310 18
2005-03-08 13:20:32 51°9.135 2°35.035 262.7 2.1 265 18.2
2005-03-08 13:21:31 51°9.118 2°34.999 234 1.4 214 18.4
2005-03-08 13:22:31 51°9.098 2°34.984 222.8 1.4 195 18.1
2005-03-08 13:23:32 51°9.08 2°34.979 224.9 0.9 193 18.2
2005-03-08 13:24:32 51°9.07 2°34.981 229.1 0.4 153 18.6
2005-03-08 13:25:33 51°9.056 2°34.976 227 1.1 207 18.3
2005-03-08 13:26:32 51°9.024 2°34.95 215.1 3.6 209 17.7
2005-03-08 13:27:33 51°8.94 2°34.968 161.7 5.7 150 18
2005-03-08 13:28:32 51°8.9 2°35.061 106.3 4.3 106 17.9
2005-03-08 13:29:33 51°8.915 2°35.147 55.4 3.1 62 17.8
2005-03-08 13:30:33 51°8.941 2°35.197 44.6 2.5 49 17.8
2005-03-08 13:31:32 51°8.961 2°35.269 74.3 3.2 76 17.8
2005-03-08 13:32:31 51°8.979 2°35.349 64.8 3.2 66 17.7
2005-03-08 13:33:33 51°9.007 2°35.428 55.9 3.2 57 17.6
2005-03-08 13:34:32 51°9.033 2°35.501 62.2 3.2 63 17.7
2005-03-08 13:35:31 51°9.055 2°35.575 63.2 3.1 72 17.5
2005-03-08 13:36:32 51°9.075 2°35.647 64.2 2.8 70 17.5
2005-03-08 13:37:32 51°9.091 2°35.719 72.8 2.9 76 17.4
2005-03-08 13:38:33 51°9.103 2°35.792 70.8 2.8 75 17.3
2005-03-08 13:39:32 51°9.119 2°35.858 61.7 2.6 57 17.2
2005-03-08 13:40:32 51°9.14 2°35.921 56.8 2.6 58 17.5
2005-03-08 13:41:32 51°9.162 2°35.985 55.9 2.8 58 17.3
2005-03-08 13:42:33 51°9.188 2°36.05 54.9 2.9 58 17.1
2005-03-08 13:43:32 51°9.213 2°36.115 56.9 3 58 16.9
2005-03-08 13:44:33 51°9.239 2°36.182 57.4 3 62 17.1
2005-03-08 13:45:32 51°9.263 2°36.25 58.7 3 61 17
2005-03-08 13:46:33 51°9.287 2°36.32 60.2 2.9 62 16.8
2005-03-08 13:47:33 51°9.308 2°36.393 64.8 2.9 64 16.9
2005-03-08 13:48:32 51°9.328 2°36.463 64 3 65 16.7
2005-03-08 13:49:32 51°9.348 2°36.536 62.8 2.9 65 16.9
2005-03-08 13:50:33 51°9.371 2°36.607 62 3 67 16.6
2005-03-08 13:51:33 51°9.394 2°36.677 62.1 3 59 16.7
2005-03-08 13:52:32 51°9.418 2°36.744 57.4 2.9 56 16.8
2005-03-08 13:53:32 51°9.445 2°36.808 51.9 2.8 54 16.6
2005-03-08 13:54:33 51°9.476 2°36.869 49.3 2.9 53 16.6
2005-03-08 13:55:33 51°9.506 2°36.93 50 2.9 50 16.8
2005-03-08 13:56:32 51°9.536 2°36.989 49 3 51 16.7
2005-03-08 13:57:33 51°9.563 2°37.052 52.1 2.5 59 16.2
2005-03-08 13:58:33 51°9.59 2°37.11 48.6 2.7 53 16.8
2005-03-08 13:59:33 51°9.619 2°37.168 48.6 2.8 52 16.8
2005-03-08 14:00:31 51°9.65 2°37.22 42 2.7 47 16.8
2005-03-08 14:01:33 51°9.687 2°37.275 38.6 3.1 43 16.8
2005-03-08 14:02:33 51°9.725 2°37.328 42 3 47 17
2005-03-08 14:03:32 51°9.757 2°37.384 44.4 2.8 48 17.2
2005-03-08 14:04:33 51°9.792 2°37.438 40.7 3 43 17.1
2005-03-08 14:05:33 51°9.83 2°37.492 42.8 3.2 46 17.4
2005-03-08 14:06:33 51°9.866 2°37.559 55 3.4 53 17.4
2005-03-08 14:07:33 51°9.897 2°37.631 57.1 2.9 59 17.6
2005-03-08 14:08:32 51°9.916 2°37.676 54.3 1.7 53 17.4
2005-03-08 14:09:33 51°9.929 2°37.707 49.1 1.2 54 17.5
2005-03-08 14:10:32 51°9.938 2°37.728 43.5 0.9 59 17.4
2005-03-08 14:11:32 51°9.942 2°37.744 39.9 0.6 55 17.5
2005-03-08 14:12:33 51°9.944 2°37.758 37.1 0.5 79 17.3
2005-03-08 14:13:31 51°9.945 2°37.769 36.2 0.4 97 17.4
2005-03-08 14:14:33 51°9.942 2°37.782 37.2 0.4 104 17.4
2005-03-08 14:15:32 51°9.938 2°37.794 42.7 0.5 131 17.4
2005-03-08 14:16:33 51°9.956 2°37.867 76.2 5.2 73 17.4
2005-03-08 14:17:33 51°9.882 2°37.992 153.9 7.3 150 17
2005-03-08 14:18:33 51°9.756 2°38.089 166.4 8.7 163 15.1
2005-03-08 14:19:33 51°9.637 2°38.181 139.3 6.2 137 13.1
2005-03-08 14:20:31 51°9.594 2°38.272 120.9 3.5 120 12.3
2005-03-08 14:21:32 51°9.562 2°38.339 133 3.4 138 12
2005-03-08 14:22:32 51°9.52 2°38.474 92.7 7 84 11.5
2005-03-08 14:23:33 51°9.539 2°38.599 71.1 3.8 73 11.4
2005-03-08 14:24:32 51°9.554 2°38.683 73.2 3.1 71 11.4
2005-03-08 14:25:33 51°9.563 2°38.761 79.1 3 87 11.5
2005-03-08 14:26:33 51°9.565 2°38.839 83.7 3 90 11.3
2005-03-08 14:27:33 51°9.571 2°38.912 75.5 2.7 79 11.2
2005-03-08 14:28:32 51°9.581 2°38.981 72.7 2.7 77 11.1
2005-03-08 14:29:32 51°9.592 2°39.053 70.5 2.8 73 10.8
2005-03-08 14:30:33 51°9.604 2°39.125 71.2 2.8 71 10.8
2005-03-08 14:31:32 51°9.615 2°39.196 74 2.8 80 10.9
2005-03-08 14:32:33 51°9.625 2°39.269 76.5 2.9 81 10.8
2005-03-08 14:33:33 51°9.635 2°39.342 79.2 2.7 83 10.4
2005-03-08 14:34:33 51°9.64 2°39.412 80.5 2.7 79 10.6
2005-03-08 14:35:33 51°9.645 2°39.485 82.7 2.8 85 10.1
2005-03-08 14:36:31 51°9.65 2°39.554 82.1 2.7 89 10.3
2005-03-08 14:37:33 51°9.654 2°39.628 80.6 2.7 86 10.3
2005-03-08 14:38:33 51°9.661 2°39.702 77.6 2.9 79 10.1
2005-03-08 14:39:32 51°9.672 2°39.773 74.6 2.8 78 10.1
2005-03-08 14:40:32 51°9.685 2°39.844 72.4 2.8 68 9.8
2005-03-08 14:41:32 51°9.698 2°39.916 73.6 2.8 73 9.8
2005-03-08 14:42:33 51°9.709 2°39.986 74 2.7 76 10.1
2005-03-08 14:43:33 51°9.72 2°40.056 73.4 2.7 72 9.8
2005-03-08 14:44:33 51°9.732 2°40.125 73.9 2.7 71 9.9
2005-03-08 14:45:33 51°9.744 2°40.194 74 2.7 77 9.7
2005-03-08 14:46:33 51°9.756 2°40.264 73.5 2.7 73 9.7
2005-03-08 14:47:32 51°9.768 2°40.331 72.2 2.6 68 9.6
2005-03-08 14:48:32 51°9.783 2°40.398 69.5 2.6 68 9.7
2005-03-08 14:49:31 51°9.797 2°40.462 71 2.6 73 9.6
2005-03-08 14:50:33 51°9.812 2°40.529 69.1 2.7 70 9.5
2005-03-08 14:51:32 51°9.826 2°40.593 69.6 2.6 64 9.6
2005-03-08 14:52:32 51°9.842 2°40.657 68.5 2.6 73 9.4
2005-03-08 14:53:33 51°9.858 2°40.721 68.2 2.6 77 9.6
2005-03-08 14:54:33 51°9.873 2°40.785 67.5 2.5 65 9.3
2005-03-08 14:55:31 51°9.888 2°40.846 66.4 2.5 62 9.3
2005-03-08 14:56:31 51°9.906 2°40.914 68.9 3.1 69 9.2
2005-03-08 14:57:32 51°9.921 2°40.993 71.8 3 70 9.3
2005-03-08 14:58:33 51°9.926 2°41.074 92.1 3.1 93 9.1
2005-03-08 14:59:33 51°9.911 2°41.159 106.4 3.4 113 9
2005-03-08 15:00:33 51°9.882 2°41.236 120.1 3.6 124 8.8
2005-03-08 15:01:33 51°9.852 2°41.29 124.7 2.4 144 8.7
2005-03-08 15:02:32 51°9.827 2°41.325 124.8 1.8 142 8.6
2005-03-08 15:03:32 51°9.806 2°41.352 121.2 1.5 139 8.5
2005-03-08 15:04:33 51°9.791 2°41.385 97.4 1.6 111 8.6
2005-03-08 15:05:32 51°9.808 2°41.425 41.4 2.1 35 8.6
2005-03-08 15:06:33 51°9.837 2°41.427 11.6 1.5 351 8.5
2005-03-08 15:07:32 51°9.859 2°41.41 355.8 1.4 330 8.6
2005-03-08 15:08:33 51°9.879 2°41.391 356.3 1.4 329 8.6
2005-03-08 15:09:33 51°9.896 2°41.375 357.6 1.1 328 8.6
2005-03-08 15:10:33 51°9.913 2°41.354 348.9 1.3 318 8.7
2005-03-08 15:11:33 51°9.93 2°41.327 339.7 1.5 312 8.7
2005-03-08 15:12:33 51°9.944 2°41.296 333 1.6 300 8.7
2005-03-08 15:13:32 51°9.956 2°41.259 323.3 1.5 302 8.9
2005-03-08 15:14:32 51°9.965 2°41.219 314.2 1.6 282 8.8
2005-03-08 15:15:32 51°9.965 2°41.182 302.1 1.2 260 9.1
2005-03-08 15:16:33 51°9.958 2°41.154 291.3 1 243 9
2005-03-08 15:17:33 51°9.946 2°41.136 275.8 0.8 219 8.9
2005-03-08 15:18:33 51°9.935 2°41.127 253.7 0.6 219 8.9
2005-03-08 15:19:32 51°9.925 2°41.119 235.6 0.7 214 8.8
2005-03-08 15:20:33 51°9.915 2°41.109 219.2 0.7 200 8.7
2005-03-08 15:21:33 51°9.904 2°41.098 209.1 0.8 202 8.8
2005-03-08 15:22:33 51°9.891 2°41.084 209.6 1.1 211 8.9
2005-03-08 15:23:33 51°9.866 2°41.012 262.7 4.8 259 8.5
2005-03-08 15:24:33 51°9.911 2°40.914 353.1 4.9 342 8.9
2005-03-08 15:25:33 51°9.973 2°40.996 59.1 5.8 53 9.1
2005-03-08 15:26:33 51°10.058 2°41.212 62.7 11 58 8.8
2005-03-08 15:27:33 51°10.163 2°41.484 62.9 12.4 59 8.9
2005-03-08 15:28:32 51°10.26 2°41.776 67 12.4 66 8.9
2005-03-08 15:29:32 51°10.356 2°42.07 65.4 12.5 64 9.1
2005-03-08 15:30:33 51°10.452 2°42.363 66.5 12.5 63 9.3
2005-03-08 15:31:32 51°10.549 2°42.653 68 12.6 64 9.3
2005-03-08 15:32:32 51°10.644 2°42.948 67.5 12.4 63 9.5
2005-03-08 15:33:32 51°10.739 2°43.242 66.9 12.4 63 9.9
2005-03-08 15:34:33 51°10.838 2°43.538 67.1 12.5 64 10.2
2005-03-08 15:35:33 51°10.936 2°43.832 67.6 12.6 63 10.4
2005-03-08 15:36:33 51°11.035 2°44.124 66.7 12.6 61 10.7
2005-03-08 15:37:33 51°11.134 2°44.416 68 12.5 62 10.9
2005-03-08 15:38:32 51°11.232 2°44.705 67.6 12.4 62 11.2
2005-03-08 15:39:33 51°11.329 2°44.999 68.6 12.6 66 11.5
2005-03-08 15:40:33 51°11.421 2°45.293 69.7 12.3 63 11.5
2005-03-08 15:41:31 51°11.509 2°45.579 68.9 12.4 64 11.7
2005-03-08 15:42:33 51°11.604 2°45.885 67.7 12.5 67 11.8
2005-03-08 15:43:33 51°11.697 2°46.182 69.5 12.4 61 11.8
2005-03-08 15:44:33 51°11.788 2°46.478 68.7 12.5 64 11.9
2005-03-08 15:45:33 51°11.883 2°46.771 68 12.4 64 11.8
2005-03-08 15:46:33 51°11.978 2°47.061 66.8 12.3 60 11.8
2005-03-08 15:47:33 51°12.078 2°47.349 66 12.5 62 11.6
2005-03-08 15:48:33 51°12.177 2°47.637 67.1 12.4 62 11.8
2005-03-08 15:49:32 51°12.274 2°47.923 66.5 12.3 61 11.5
2005-03-08 15:50:33 51°12.372 2°48.215 66.8 12.3 63 11.4
2005-03-08 15:51:33 51°12.469 2°48.505 66.2 12.4 61 11.3
2005-03-08 15:52:33 51°12.566 2°48.796 66 12.3 63 11.2
2005-03-08 15:53:33 51°12.662 2°49.083 67.2 12.4 61 11.1
2005-03-08 15:54:33 51°12.759 2°49.37 66.1 12.4 60 10.9
2005-03-08 15:55:33 51°12.853 2°49.658 66.8 12.4 63 10.9
2005-03-08 15:56:33 51°12.947 2°49.945 66.1 12.1 61 10.6
2005-03-08 15:57:33 51°13.041 2°50.231 66.5 12.3 62 10.4
2005-03-08 15:58:33 51°13.134 2°50.518 66 12.1 61 10.4
2005-03-08 15:59:33 51°13.227 2°50.806 65.9 12.1 64 10.1
2005-03-08 16:00:33 51°13.321 2°51.093 65.4 12.2 62 10.2
2005-03-08 16:01:33 51°13.417 2°51.382 65.4 12.3 62 10
2005-03-08 16:02:33 51°13.511 2°51.671 65 12.3 64 10
2005-03-08 16:03:33 51°13.61 2°51.961 64.5 12.5 61 9.8
2005-03-08 16:04:33 51°13.706 2°52.252 64.6 12.4 61 9.7
2005-03-08 16:05:33 51°13.798 2°52.54 64.4 12.1 60 9.6
2005-03-08 16:06:32 51°13.888 2°52.822 65.6 12.1 62 9.4
2005-03-08 16:07:33 51°13.978 2°53.111 65.6 12 65 9.1
2005-03-08 16:08:33 51°14.061 2°53.401 67.8 12.1 67 8.7
2005-03-08 16:09:33 51°14.14 2°53.699 67.5 12.1 67 8.6
2005-03-08 16:10:33 51°14.224 2°53.984 65.5 12.1 64 8.3
2005-03-08 16:11:33 51°14.311 2°54.27 65.3 11.9 64 8.3
2005-03-08 16:12:32 51°14.391 2°54.556 75.6 12 77 8.9
2005-03-08 16:13:33 51°14.395 2°54.864 92.2 11 96 9.1
2005-03-08 16:14:33 51°14.329 2°55.133 123.3 11.1 119 9
2005-03-08 16:15:33 51°14.209 2°55.337 141.3 9.5 143 8.8
2005-03-08 16:16:33 51°14.087 2°55.437 155.2 7.6 154 8.4
2005-03-08 16:17:33 51°13.974 2°55.522 157.5 7.4 156 8.9
2005-03-08 16:18:33 51°13.865 2°55.603 156.8 7.2 154 9.1
2005-03-08 16:19:33 51°13.766 2°55.706 140.3 7.1 137 9.1
2005-03-08 16:20:33 51°13.693 2°55.841 129.9 6.3 128 8.9
2005-03-08 16:21:33 51°13.645 2°55.957 123.5 5.2 122 8.8
2005-03-08 16:22:33 51°13.609 2°56.057 117.9 3.7 114 8.3
2005-03-08 16:23:32 51°13.595 2°56.1 121.2 0.7 125 6.5